createdAt,value
2018-12-17T00:00:15.196Z,123.60
2018-12-17T00:01:36.160Z,119.80
2018-12-17T00:02:15.147Z,116.50
2018-12-17T00:03:15.118Z,118.80
2018-12-17T00:04:36.102Z,126.80
2018-12-17T00:05:15.080Z,120.90
2018-12-17T00:06:36.050Z,124.40
2018-12-17T00:07:15.027Z,122.80
2018-12-17T00:08:15.006Z,120.20
2018-12-17T00:09:36.018Z,112.60
2018-12-17T00:10:14.974Z,119.10
2018-12-17T00:11:35.949Z,118.00
2018-12-17T00:12:16.687Z,121.10
2018-12-17T00:13:14.895Z,122.60
2018-12-17T00:14:35.883Z,124.30
2018-12-17T00:15:14.853Z,108.10
2018-12-17T00:16:35.841Z,112.80
2018-12-17T00:17:14.827Z,112.70
2018-12-17T00:18:14.787Z,118.80
2018-12-17T00:19:35.779Z,110.90
2018-12-17T00:20:14.746Z,107.20
2018-12-17T00:21:35.736Z,104.10
2018-12-17T00:22:14.696Z,110.10
2018-12-17T00:23:14.682Z,103.80
2018-12-17T00:24:35.667Z,106.80
2018-12-17T00:25:14.633Z,104.80
2018-12-17T00:26:35.612Z,101.10
2018-12-17T00:27:14.587Z,104.30
2018-12-17T00:28:14.567Z,99.80
2018-12-17T00:29:35.559Z,97.90
2018-12-17T00:30:14.524Z,104.60
2018-12-17T00:31:35.498Z,104.80
2018-12-17T00:32:14.483Z,96.20
2018-12-17T00:33:14.532Z,105.60
2018-12-17T00:34:35.449Z,92.40
2018-12-17T00:35:14.425Z,94.60
2018-12-17T00:36:35.397Z,97.80
2018-12-17T00:37:14.371Z,97.40
2018-12-17T00:38:14.351Z,99.60
2018-12-17T00:39:35.356Z,94.60
2018-12-17T00:40:14.299Z,103.00
2018-12-17T00:41:35.286Z,103.00
2018-12-17T00:42:14.255Z,100.60
2018-12-17T00:43:14.251Z,92.70
2018-12-17T00:44:35.221Z,96.80
2018-12-17T00:45:14.189Z,93.90
2018-12-17T00:46:35.166Z,94.00
2018-12-17T00:47:14.186Z,91.40
2018-12-17T00:48:14.139Z,99.60
2018-12-17T00:49:35.104Z,95.90
2018-12-17T00:50:14.086Z,91.00
2018-12-17T00:51:35.067Z,86.20
2018-12-17T00:52:14.041Z,83.30
2018-12-17T00:53:14.015Z,90.50
2018-12-17T00:54:34.996Z,90.40
2018-12-17T00:55:13.967Z,83.90
2018-12-17T00:56:34.952Z,80.40
2018-12-17T00:57:13.926Z,78.70
2018-12-17T00:58:15.328Z,78.10
2018-12-17T00:59:34.880Z,78.40
2018-12-17T01:00:13.859Z,74.90
2018-12-17T01:01:34.844Z,73.80
2018-12-17T01:02:13.822Z,73.30
2018-12-17T01:03:13.794Z,76.00
2018-12-17T01:04:34.780Z,76.00
2018-12-17T01:05:13.751Z,71.80
2018-12-17T01:06:34.746Z,72.80
2018-12-17T01:07:13.724Z,72.00
2018-12-17T01:08:13.684Z,72.20
2018-12-17T01:09:34.661Z,78.20
2018-12-17T01:10:13.639Z,73.80
2018-12-17T01:11:34.617Z,65.10
2018-12-17T01:12:13.610Z,73.60
2018-12-17T01:13:13.581Z,69.90
2018-12-17T01:14:34.551Z,67.50
2018-12-17T01:15:13.537Z,66.90
2018-12-17T01:16:34.511Z,68.10
2018-12-17T01:17:13.484Z,67.70
2018-12-17T01:18:13.474Z,68.80
2018-12-17T01:19:34.440Z,66.30
2018-12-17T01:20:13.424Z,67.70
2018-12-17T01:21:34.401Z,62.50
2018-12-17T01:22:13.382Z,63.30
2018-12-17T01:23:13.355Z,66.40
2018-12-17T01:24:34.345Z,63.20
2018-12-17T01:25:13.307Z,58.00
2018-12-17T01:26:34.299Z,59.40
2018-12-17T01:27:13.272Z,67.00
2018-12-17T01:28:13.240Z,59.00
2018-12-17T01:29:34.227Z,64.10
2018-12-17T01:30:13.196Z,62.20
2018-12-17T01:31:34.177Z,63.20
2018-12-17T01:32:13.152Z,64.10
2018-12-17T01:33:13.132Z,58.70
2018-12-17T01:34:34.114Z,57.20
2018-12-17T01:35:13.094Z,57.40
2018-12-17T01:36:34.077Z,56.10
2018-12-17T01:37:13.045Z,64.50
2018-12-17T01:38:13.033Z,59.80
2018-12-17T01:39:34.008Z,57.80
2018-12-17T01:40:12.985Z,55.70
2018-12-17T01:41:33.954Z,57.40
2018-12-17T01:42:12.936Z,53.90
2018-12-17T01:43:12.911Z,59.80
2018-12-17T01:44:33.899Z,51.90
2018-12-17T01:45:12.883Z,52.70
2018-12-17T01:46:33.845Z,55.30
2018-12-17T01:47:12.822Z,55.00
2018-12-17T01:48:12.802Z,58.60
2018-12-17T01:49:33.788Z,56.20
2018-12-17T01:50:12.755Z,57.10
2018-12-17T01:51:33.739Z,57.40
2018-12-17T01:52:12.714Z,55.10
2018-12-17T01:53:12.700Z,58.30
2018-12-17T01:54:33.667Z,55.00
2018-12-17T01:55:12.646Z,62.50
2018-12-17T01:56:33.637Z,56.00
2018-12-17T01:57:12.608Z,49.40
2018-12-17T01:58:12.579Z,55.00
2018-12-17T01:59:33.557Z,57.50
2018-12-17T02:00:12.543Z,52.70
2018-12-17T02:01:33.517Z,53.10
2018-12-17T02:02:12.496Z,49.90
2018-12-17T02:03:12.475Z,56.20
2018-12-17T02:04:33.449Z,52.60
2018-12-17T02:05:12.427Z,55.20
2018-12-17T02:06:33.402Z,58.30
2018-12-17T02:07:12.398Z,53.10
2018-12-17T02:08:12.363Z,52.50
2018-12-17T02:09:33.342Z,48.70
2018-12-17T02:10:12.319Z,48.20
2018-12-17T02:11:33.296Z,55.90
2018-12-17T02:12:12.271Z,54.60
2018-12-17T02:13:12.261Z,52.20
2018-12-17T02:14:33.233Z,49.20
2018-12-17T02:15:12.212Z,57.00
2018-12-17T02:16:33.183Z,44.60
2018-12-17T02:17:12.171Z,50.20
2018-12-17T02:18:12.151Z,51.10
2018-12-17T02:19:33.119Z,50.40
2018-12-17T02:20:12.100Z,45.10
2018-12-17T02:21:33.077Z,50.50
2018-12-17T02:22:12.049Z,46.00
2018-12-17T02:23:12.029Z,51.50
2018-12-17T02:24:33.025Z,48.20
2018-12-17T02:25:11.987Z,46.90
2018-12-17T02:26:32.970Z,47.90
2018-12-17T02:27:11.941Z,47.30
2018-12-17T02:28:11.917Z,49.90
2018-12-17T02:29:32.904Z,44.00
2018-12-17T02:30:11.883Z,44.20
2018-12-17T02:31:32.865Z,49.80
2018-12-17T02:32:11.843Z,46.60
2018-12-17T02:33:11.821Z,47.20
2018-12-17T02:34:32.792Z,45.80
2018-12-17T02:35:11.763Z,41.20
2018-12-17T02:36:32.760Z,42.70
2018-12-17T02:37:11.735Z,48.00
2018-12-17T02:38:11.696Z,46.60
2018-12-17T02:39:32.683Z,43.50
2018-12-17T02:40:11.662Z,43.20
2018-12-17T02:41:32.632Z,39.50
2018-12-17T02:42:11.608Z,42.70
2018-12-17T02:43:11.596Z,40.40
2018-12-17T02:44:32.570Z,41.20
2018-12-17T02:45:11.546Z,43.80
2018-12-17T02:46:32.528Z,42.00
2018-12-17T02:47:11.510Z,41.10
2018-12-17T02:48:11.476Z,40.90
2018-12-17T02:49:32.462Z,40.10
2018-12-17T02:50:11.464Z,45.60
2018-12-17T02:51:32.419Z,39.40
2018-12-17T02:52:11.412Z,41.60
2018-12-17T02:53:11.379Z,36.50
2018-12-17T02:54:32.365Z,41.20
2018-12-17T02:55:11.363Z,35.10
2018-12-17T02:56:32.303Z,36.90
2018-12-17T02:57:11.311Z,39.10
2018-12-17T02:58:11.267Z,43.30
2018-12-17T02:59:32.234Z,34.80
2018-12-17T03:00:11.218Z,37.10
2018-12-17T03:01:32.204Z,40.80
2018-12-17T03:02:11.192Z,39.00
2018-12-17T03:03:11.156Z,39.50
2018-12-17T03:04:32.127Z,40.00
2018-12-17T03:05:11.142Z,41.60
2018-12-17T03:06:32.092Z,34.40
2018-12-17T03:07:11.071Z,42.30
2018-12-17T03:08:11.070Z,40.20
2018-12-17T03:09:32.015Z,39.00
2018-12-17T03:10:11.003Z,40.30
2018-12-17T03:11:31.978Z,36.40
2018-12-17T03:12:10.949Z,36.20
2018-12-17T03:13:10.934Z,39.30
2018-12-17T03:14:31.915Z,35.20
2018-12-17T03:15:10.888Z,36.00
2018-12-17T03:16:31.863Z,35.90
2018-12-17T03:17:10.843Z,38.80
2018-12-17T03:18:10.818Z,37.20
2018-12-17T03:19:31.794Z,38.90
2018-12-17T03:20:10.778Z,35.60
2018-12-17T03:21:31.761Z,39.10
2018-12-17T03:22:10.738Z,35.50
2018-12-17T03:23:10.724Z,38.60
2018-12-17T03:24:31.693Z,36.80
2018-12-17T03:25:10.673Z,36.60
2018-12-17T03:26:31.654Z,36.00
2018-12-17T03:27:10.632Z,36.20
2018-12-17T03:28:10.601Z,38.90
2018-12-17T03:29:31.580Z,39.10
2018-12-17T03:30:10.557Z,41.60
2018-12-17T03:31:31.538Z,34.80
2018-12-17T03:32:10.518Z,39.20
2018-12-17T03:33:10.489Z,39.80
2018-12-17T03:34:31.469Z,40.60
2018-12-17T03:35:10.456Z,40.10
2018-12-17T03:36:31.429Z,35.30
2018-12-17T03:37:10.409Z,37.90
2018-12-17T03:38:10.380Z,37.20
2018-12-17T03:39:31.376Z,41.90
2018-12-17T03:40:10.338Z,41.80
2018-12-17T03:41:31.315Z,42.10
2018-12-17T03:42:10.302Z,41.70
2018-12-17T03:43:10.270Z,38.60
2018-12-17T03:44:31.256Z,37.30
2018-12-17T03:45:10.234Z,37.30
2018-12-17T03:46:31.201Z,36.50
2018-12-17T03:47:10.199Z,41.60
2018-12-17T03:48:10.168Z,38.90
2018-12-17T03:49:31.150Z,37.30
2018-12-17T03:50:10.115Z,35.60
2018-12-17T03:51:31.096Z,34.70
2018-12-17T03:52:10.086Z,36.20
2018-12-17T03:53:10.052Z,34.30
2018-12-17T03:54:31.033Z,37.70
2018-12-17T03:55:10.012Z,36.40
2018-12-17T03:56:31.002Z,37.90
2018-12-17T03:57:09.971Z,37.60
2018-12-17T03:58:09.938Z,35.60
2018-12-17T03:59:30.934Z,36.30
2018-12-17T04:00:09.895Z,34.20
2018-12-17T04:01:30.886Z,36.30
2018-12-17T04:02:09.867Z,37.70
2018-12-17T04:03:09.831Z,34.50
2018-12-17T04:04:30.806Z,34.60
2018-12-17T04:05:09.785Z,39.00
2018-12-17T04:06:30.778Z,36.60
2018-12-17T04:07:09.743Z,35.10
2018-12-17T04:08:09.723Z,34.40
2018-12-17T04:09:30.696Z,37.10
2018-12-17T04:10:09.681Z,34.40
2018-12-17T04:11:30.651Z,37.30
2018-12-17T04:12:09.634Z,34.90
2018-12-17T04:13:09.611Z,31.30
2018-12-17T04:14:30.588Z,33.30
2018-12-17T04:15:09.572Z,35.80
2018-12-17T04:16:30.545Z,39.70
2018-12-17T04:17:09.518Z,35.00
2018-12-17T04:18:09.505Z,33.40
2018-12-17T04:19:30.476Z,39.10
2018-12-17T04:20:09.458Z,33.00
2018-12-17T04:21:30.448Z,35.90
2018-12-17T04:22:09.422Z,30.30
2018-12-17T04:23:09.394Z,32.70
2018-12-17T04:24:30.363Z,34.40
2018-12-17T04:25:09.363Z,34.00
2018-12-17T04:26:30.324Z,33.80
2018-12-17T04:27:09.300Z,33.30
2018-12-17T04:28:09.285Z,34.30
2018-12-17T04:29:30.255Z,40.10
2018-12-17T04:30:09.238Z,37.30
2018-12-17T04:31:30.225Z,33.40
2018-12-17T04:32:09.211Z,35.30
2018-12-17T04:33:09.183Z,34.30
2018-12-17T04:34:30.148Z,32.60
2018-12-17T04:35:09.119Z,32.70
2018-12-17T04:36:30.108Z,33.20
2018-12-17T04:37:09.077Z,32.20
2018-12-17T04:38:09.058Z,36.40
2018-12-17T04:39:30.035Z,35.90
2018-12-17T04:40:09.022Z,35.90
2018-12-17T04:41:29.989Z,33.10
2018-12-17T04:42:08.967Z,29.70
2018-12-17T04:43:08.952Z,33.40
2018-12-17T04:44:29.925Z,35.20
2018-12-17T04:45:08.899Z,37.50
2018-12-17T04:46:29.882Z,35.60
2018-12-17T04:47:08.852Z,35.60
2018-12-17T04:48:08.834Z,33.60
2018-12-17T04:49:29.807Z,36.70
2018-12-17T04:50:08.792Z,34.70
2018-12-17T04:51:29.768Z,37.00
2018-12-17T04:52:08.755Z,36.70
2018-12-17T04:53:08.722Z,41.10
2018-12-17T04:54:29.707Z,35.10
2018-12-17T04:55:08.689Z,37.00
2018-12-17T04:56:29.663Z,34.30
2018-12-17T04:57:08.651Z,32.90
2018-12-17T04:58:08.628Z,34.50
2018-12-17T04:59:29.591Z,35.80
2018-12-17T05:00:08.571Z,33.20
2018-12-17T05:01:29.550Z,34.10
2018-12-17T05:02:08.524Z,35.00
2018-12-17T05:03:08.511Z,37.00
2018-12-17T05:04:29.482Z,34.20
2018-12-17T05:05:08.460Z,37.10
2018-12-17T05:06:29.436Z,32.70
2018-12-17T05:07:08.422Z,34.10
2018-12-17T05:08:08.391Z,34.60
2018-12-17T05:09:29.382Z,33.50
2018-12-17T05:10:08.348Z,34.90
2018-12-17T05:11:29.334Z,35.00
2018-12-17T05:12:08.317Z,31.60
2018-12-17T05:13:08.287Z,30.20
2018-12-17T05:14:29.260Z,28.60
2018-12-17T05:15:08.246Z,33.30
2018-12-17T05:16:29.226Z,35.40
2018-12-17T05:17:08.204Z,34.20
2018-12-17T05:18:08.169Z,34.60
2018-12-17T05:19:29.157Z,33.50
2018-12-17T05:20:08.205Z,35.10
2018-12-17T05:21:29.112Z,34.40
2018-12-17T05:22:08.096Z,36.60
2018-12-17T05:23:08.070Z,39.10
2018-12-17T05:24:29.040Z,33.30
2018-12-17T05:25:08.027Z,35.20
2018-12-17T05:26:28.994Z,34.50
2018-12-17T05:27:07.974Z,34.90
2018-12-17T05:28:07.954Z,35.80
2018-12-17T05:29:28.954Z,36.20
2018-12-17T05:30:07.906Z,33.60
2018-12-17T05:31:28.885Z,34.10
2018-12-17T05:32:07.863Z,31.20
2018-12-17T05:33:07.841Z,33.90
2018-12-17T05:34:28.827Z,31.70
2018-12-17T05:35:07.811Z,31.30
2018-12-17T05:36:28.775Z,34.90
2018-12-17T05:37:07.756Z,31.10
2018-12-17T05:38:07.740Z,31.70
2018-12-17T05:39:28.709Z,28.00
2018-12-17T05:40:07.686Z,29.30
2018-12-17T05:41:28.680Z,30.30
2018-12-17T05:42:07.645Z,33.20
2018-12-17T05:43:07.623Z,33.60
2018-12-17T05:44:28.602Z,27.70
2018-12-17T05:45:07.579Z,30.70
2018-12-17T05:46:28.561Z,30.70
2018-12-17T05:47:07.530Z,29.60
2018-12-17T05:48:07.518Z,34.40
2018-12-17T05:49:28.491Z,29.60
2018-12-17T05:50:07.473Z,30.80
2018-12-17T05:51:28.450Z,29.80
2018-12-17T05:52:07.422Z,29.20
2018-12-17T05:53:07.417Z,29.30
2018-12-17T05:54:28.387Z,28.20
2018-12-17T05:55:07.357Z,28.30
2018-12-17T05:56:28.380Z,31.90
2018-12-17T05:57:07.316Z,30.90
2018-12-17T05:58:07.296Z,30.90
2018-12-17T05:59:28.679Z,30.20
2018-12-17T06:00:07.248Z,30.00
2018-12-17T06:01:28.232Z,33.30
2018-12-17T06:02:07.202Z,33.30
2018-12-17T06:03:07.180Z,25.70
2018-12-17T06:04:28.162Z,27.00
2018-12-17T06:05:07.137Z,28.10
2018-12-17T06:06:28.115Z,27.70
2018-12-17T06:07:07.097Z,29.60
2018-12-17T06:08:07.071Z,31.60
2018-12-17T06:09:28.052Z,26.70
2018-12-17T06:10:07.027Z,29.00
2018-12-17T06:11:28.006Z,28.90
2018-12-17T06:12:06.985Z,28.10
2018-12-17T06:13:06.973Z,31.00
2018-12-17T06:14:27.939Z,30.30
2018-12-17T06:15:06.920Z,27.70
2018-12-17T06:16:27.897Z,31.80
2018-12-17T06:17:06.876Z,26.20
2018-12-17T06:18:06.863Z,32.10
2018-12-17T06:19:27.848Z,30.60
2018-12-17T06:20:06.809Z,28.40
2018-12-17T06:21:27.789Z,27.50
2018-12-17T06:22:06.784Z,31.10
2018-12-17T06:23:06.752Z,27.90
2018-12-17T06:24:27.723Z,25.60
2018-12-17T06:25:06.702Z,26.20
2018-12-17T06:26:27.687Z,28.50
2018-12-17T06:27:06.663Z,32.30
2018-12-17T06:28:06.642Z,24.50
2018-12-17T06:29:27.615Z,29.10
2018-12-17T06:30:06.597Z,26.40
2018-12-17T06:31:27.575Z,26.20
2018-12-17T06:32:06.547Z,28.90
2018-12-17T06:33:06.526Z,30.60
2018-12-17T06:34:27.508Z,24.80
2018-12-17T06:35:06.498Z,25.30
2018-12-17T06:36:27.460Z,26.70
2018-12-17T06:37:06.447Z,24.80
2018-12-17T06:38:06.419Z,24.40
2018-12-17T06:39:27.393Z,25.20
2018-12-17T06:40:10.267Z,26.60
2018-12-17T06:41:27.346Z,26.40
2018-12-17T06:42:06.326Z,23.00
2018-12-17T06:43:06.314Z,24.60
2018-12-17T06:44:27.291Z,25.30
2018-12-17T06:45:06.259Z,22.50
2018-12-17T06:46:27.250Z,23.60
2018-12-17T06:47:06.224Z,23.10
2018-12-17T06:48:06.205Z,23.50
2018-12-17T06:49:27.191Z,24.30
2018-12-17T06:50:06.148Z,25.70
2018-12-17T06:51:27.140Z,24.90
2018-12-17T06:52:06.113Z,24.50
2018-12-17T06:53:06.091Z,27.90
2018-12-17T06:54:27.061Z,21.40
2018-12-17T06:55:06.043Z,22.00
2018-12-17T06:56:27.019Z,23.60
2018-12-17T06:57:06.001Z,22.00
2018-12-17T06:58:05.988Z,24.80
2018-12-17T06:59:26.963Z,21.70
2018-12-17T07:00:05.940Z,21.80
2018-12-17T07:01:28.147Z,24.30
2018-12-17T07:02:05.889Z,23.80
2018-12-17T07:03:05.865Z,22.50
2018-12-17T07:04:26.853Z,21.50
2018-12-17T07:05:05.821Z,22.50
2018-12-17T07:06:26.797Z,22.90
2018-12-17T07:07:05.776Z,20.50
2018-12-17T07:08:05.755Z,19.90
2018-12-17T07:09:26.736Z,24.50
2018-12-17T07:10:05.718Z,21.40
2018-12-17T07:11:26.700Z,21.10
2018-12-17T07:12:05.693Z,19.20
2018-12-17T07:13:05.649Z,21.80
2018-12-17T07:14:26.632Z,22.10
2018-12-17T07:15:05.604Z,22.10
2018-12-17T07:16:26.590Z,19.40
2018-12-17T07:17:05.560Z,20.50
2018-12-17T07:18:05.535Z,22.00
2018-12-17T07:19:26.528Z,20.90
2018-12-17T07:20:05.502Z,23.00
2018-12-17T07:21:26.477Z,21.80
2018-12-17T07:22:05.466Z,23.10
2018-12-17T07:23:05.444Z,20.70
2018-12-17T07:24:26.413Z,20.50
2018-12-17T07:25:05.394Z,22.50
2018-12-17T07:26:26.371Z,24.50
2018-12-17T07:27:05.347Z,24.80
2018-12-17T07:28:05.319Z,22.30
2018-12-17T07:29:26.297Z,23.00
2018-12-17T07:30:05.277Z,21.00
2018-12-17T07:31:26.279Z,27.10
2018-12-17T07:32:05.232Z,28.10
2018-12-17T07:33:05.218Z,24.40
2018-12-17T07:34:26.192Z,22.80
2018-12-17T07:35:05.181Z,21.70
2018-12-17T07:36:26.147Z,25.80
2018-12-17T07:37:05.125Z,26.80
2018-12-17T07:38:05.111Z,21.90
2018-12-17T07:39:26.125Z,22.60
2018-12-17T07:40:05.063Z,29.10
2018-12-17T07:41:26.048Z,24.60
2018-12-17T07:42:05.019Z,20.00
2018-12-17T07:43:05.005Z,25.60
2018-12-17T07:44:25.978Z,23.70
2018-12-17T07:45:05.302Z,23.60
2018-12-17T07:46:25.934Z,22.50
2018-12-17T07:47:04.914Z,27.20
2018-12-17T07:48:04.884Z,26.20
2018-12-17T07:49:25.871Z,22.80
2018-12-17T07:50:04.839Z,26.20
2018-12-17T07:51:25.829Z,23.60
2018-12-17T07:52:04.795Z,24.30
2018-12-17T07:53:04.786Z,25.30
2018-12-17T07:54:25.756Z,22.10
2018-12-17T07:55:04.736Z,23.00
2018-12-17T07:56:25.709Z,25.80
2018-12-17T07:57:04.691Z,26.50
2018-12-17T07:58:04.668Z,20.80
2018-12-17T07:59:25.678Z,22.20
2018-12-17T08:00:04.629Z,21.60
2018-12-17T08:01:25.616Z,24.10
2018-12-17T08:02:04.580Z,22.30
2018-12-17T08:03:04.561Z,30.90
2018-12-17T08:04:25.545Z,27.40
2018-12-17T08:05:04.513Z,22.90
2018-12-17T08:06:25.494Z,23.90
2018-12-17T08:07:04.474Z,23.30
2018-12-17T08:08:04.456Z,28.50
2018-12-17T08:09:25.423Z,23.10
2018-12-17T08:10:04.403Z,28.50
2018-12-17T08:11:25.392Z,25.80
2018-12-17T08:12:04.368Z,20.60
2018-12-17T08:13:04.346Z,22.10
2018-12-17T08:14:25.322Z,22.50
2018-12-17T08:15:04.299Z,25.30
2018-12-17T08:16:25.284Z,21.90
2018-12-17T08:17:04.258Z,23.70
2018-12-17T08:18:04.230Z,22.90
2018-12-17T08:19:25.204Z,23.50
2018-12-17T08:20:04.195Z,20.20
2018-12-17T08:21:25.165Z,22.90
2018-12-17T08:22:04.140Z,22.70
2018-12-17T08:23:04.126Z,22.60
2018-12-17T08:24:25.104Z,21.20
2018-12-17T08:25:04.081Z,23.30
2018-12-17T08:26:25.065Z,22.30
2018-12-17T08:27:04.037Z,21.60
2018-12-17T08:28:04.017Z,20.90
2018-12-17T08:29:24.992Z,25.70
2018-12-17T08:30:04.297Z,19.80
2018-12-17T08:31:24.979Z,23.80
2018-12-17T08:32:04.012Z,27.40
2018-12-17T08:33:03.905Z,25.00
2018-12-17T08:34:24.897Z,24.40
2018-12-17T08:35:03.874Z,26.10
2018-12-17T08:36:24.855Z,23.10
2018-12-17T08:37:03.835Z,20.70
2018-12-17T08:38:03.807Z,26.60
2018-12-17T08:39:24.794Z,26.90
2018-12-17T08:40:03.772Z,24.90
2018-12-17T08:41:24.739Z,22.50
2018-12-17T08:42:03.709Z,26.30
2018-12-17T08:43:03.689Z,28.40
2018-12-17T08:44:24.699Z,27.90
2018-12-17T08:45:03.645Z,22.90
2018-12-17T08:46:24.635Z,23.90
2018-12-17T08:47:03.603Z,24.10
2018-12-17T08:48:03.580Z,19.90
2018-12-17T08:49:24.573Z,25.00
2018-12-17T08:50:03.554Z,22.00
2018-12-17T08:51:24.539Z,23.10
2018-12-17T08:52:03.505Z,25.30
2018-12-17T08:53:03.473Z,24.70
2018-12-17T08:54:24.459Z,24.30
2018-12-17T08:55:03.446Z,26.50
2018-12-17T08:56:24.426Z,26.70
2018-12-17T08:57:03.396Z,20.30
2018-12-17T08:58:03.371Z,22.40
2018-12-17T08:59:24.345Z,21.40
2018-12-17T09:00:03.338Z,20.50
2018-12-17T09:01:24.314Z,20.10
2018-12-17T09:02:03.294Z,22.90
2018-12-17T09:03:03.266Z,22.70
2018-12-17T09:04:24.318Z,18.90
2018-12-17T09:05:03.219Z,25.40
2018-12-17T09:06:24.219Z,20.50
2018-12-17T09:07:03.179Z,23.20
2018-12-17T09:08:03.163Z,19.20
2018-12-17T09:09:24.134Z,19.70
2018-12-17T09:10:03.151Z,18.80
2018-12-17T09:11:24.096Z,21.00
2018-12-17T09:12:03.074Z,18.60
2018-12-17T09:13:03.053Z,20.90
2018-12-17T09:14:24.038Z,23.10
2018-12-17T09:15:03.075Z,16.40
2018-12-17T09:16:23.999Z,21.30
2018-12-17T09:17:02.984Z,19.80
2018-12-17T09:18:02.957Z,19.90
2018-12-17T09:19:23.931Z,17.80
2018-12-17T09:20:02.907Z,18.60
2018-12-17T09:21:23.887Z,24.20
2018-12-17T09:22:03.501Z,23.20
2018-12-17T09:23:02.851Z,17.80
2018-12-17T09:24:23.828Z,19.40
2018-12-17T09:25:02.825Z,27.10
2018-12-17T09:26:23.794Z,22.20
2018-12-17T09:27:02.758Z,17.70
2018-12-17T09:28:02.771Z,32.40
2018-12-17T09:29:23.731Z,32.80
2018-12-17T09:30:02.699Z,22.70
2018-12-17T09:31:23.705Z,20.20
2018-12-17T09:32:02.668Z,22.00
2018-12-17T09:33:02.693Z,17.50
2018-12-17T09:34:23.689Z,20.50
2018-12-17T09:35:02.617Z,20.00
2018-12-17T09:36:23.592Z,19.50
2018-12-17T09:37:02.581Z,20.10
2018-12-17T09:38:02.559Z,22.20
2018-12-17T09:39:23.550Z,31.10
2018-12-17T09:40:02.503Z,26.20
2018-12-17T09:41:23.486Z,21.70
2018-12-17T09:42:02.452Z,18.60
2018-12-17T09:43:02.454Z,19.60
2018-12-17T09:44:23.448Z,24.30
2018-12-17T09:45:02.391Z,25.10
2018-12-17T09:46:23.372Z,20.80
2018-12-17T09:47:02.433Z,20.30
2018-12-17T09:48:02.338Z,18.70
2018-12-17T09:49:23.341Z,21.40
2018-12-17T09:50:02.298Z,20.20
2018-12-17T09:51:23.276Z,19.30
2018-12-17T09:52:02.259Z,22.30
2018-12-17T09:53:02.225Z,21.10
2018-12-17T09:54:23.204Z,19.60
2018-12-17T09:55:02.186Z,22.50
2018-12-17T09:56:23.168Z,22.90
2018-12-17T09:57:02.150Z,20.30
2018-12-17T09:58:02.214Z,22.60
2018-12-17T09:59:23.105Z,23.10
2018-12-17T10:00:02.079Z,21.60
2018-12-17T10:01:23.071Z,16.60
2018-12-17T10:02:02.154Z,19.20
2018-12-17T10:03:02.091Z,17.10
2018-12-17T10:04:23.010Z,17.10
2018-12-17T10:05:01.988Z,20.30
2018-12-17T10:06:22.973Z,17.30
2018-12-17T10:07:01.951Z,18.30
2018-12-17T10:08:01.935Z,20.00
2018-12-17T10:09:22.939Z,20.00
2018-12-17T10:10:01.881Z,21.20
2018-12-17T10:11:22.905Z,20.90
2018-12-17T10:12:01.848Z,25.80
2018-12-17T10:13:01.829Z,20.70
2018-12-17T10:14:22.796Z,18.40
2018-12-17T10:15:01.833Z,21.70
2018-12-17T10:16:22.788Z,22.00
2018-12-17T10:17:01.761Z,21.30
2018-12-17T10:18:01.729Z,18.10
2018-12-17T10:19:22.745Z,16.10
2018-12-17T10:20:01.744Z,19.30
2018-12-17T10:21:22.678Z,19.00
2018-12-17T10:22:01.638Z,19.00
2018-12-17T10:23:01.647Z,20.20
2018-12-17T10:24:22.603Z,18.70
2018-12-17T10:25:01.595Z,19.40
2018-12-17T10:26:22.571Z,20.20
2018-12-17T10:27:01.541Z,21.40
2018-12-17T10:28:01.607Z,17.90
2018-12-17T10:29:22.503Z,18.50
2018-12-17T10:30:01.521Z,17.90
2018-12-17T10:31:22.460Z,17.90
2018-12-17T10:32:01.441Z,23.80
2018-12-17T10:33:01.426Z,18.80
2018-12-17T10:34:22.407Z,21.00
2018-12-17T10:35:01.403Z,23.00
2018-12-17T10:36:22.349Z,21.40
2018-12-17T10:37:01.326Z,21.70
2018-12-17T10:38:01.307Z,20.00
2018-12-17T10:39:22.290Z,20.60
2018-12-17T10:40:01.295Z,20.70
2018-12-17T10:41:22.254Z,18.40
2018-12-17T10:42:01.225Z,20.30
2018-12-17T10:43:01.203Z,18.60
2018-12-17T10:44:22.187Z,19.10
2018-12-17T10:45:01.189Z,20.30
2018-12-17T10:46:22.155Z,15.80
2018-12-17T10:47:01.135Z,17.60
2018-12-17T10:48:01.105Z,22.70
2018-12-17T10:49:22.097Z,20.40
2018-12-17T10:50:01.078Z,19.90
2018-12-17T10:51:22.056Z,19.00
2018-12-17T10:52:01.078Z,20.40
2018-12-17T10:53:01.006Z,21.50
2018-12-17T10:54:21.992Z,19.70
2018-12-17T10:55:00.962Z,18.40
2018-12-17T10:56:21.950Z,18.80
2018-12-17T10:57:00.971Z,18.40
2018-12-17T10:58:00.929Z,20.20
2018-12-17T10:59:21.915Z,19.60
2018-12-17T11:00:00.873Z,20.80
2018-12-17T11:01:21.859Z,19.20
2018-12-17T11:02:02.012Z,18.80
2018-12-17T11:03:00.822Z,22.20
2018-12-17T11:04:21.812Z,19.20
2018-12-17T11:05:02.487Z,17.80
2018-12-17T11:06:21.752Z,19.20
2018-12-17T11:07:00.742Z,18.50
2018-12-17T11:08:00.729Z,20.70
2018-12-17T11:09:21.690Z,19.20
2018-12-17T11:10:00.691Z,23.30
2018-12-17T11:11:21.647Z,21.90
2018-12-17T11:12:00.655Z,20.60
2018-12-17T11:13:00.684Z,20.90
2018-12-17T11:14:21.595Z,19.80
2018-12-17T11:15:00.567Z,20.80
2018-12-17T11:16:21.560Z,20.40
2018-12-17T11:17:00.538Z,23.60
2018-12-17T11:18:00.530Z,25.30
2018-12-17T11:19:21.490Z,23.30
2018-12-17T11:20:00.478Z,21.60
2018-12-17T11:21:21.460Z,22.90
2018-12-17T11:22:00.434Z,20.90
2018-12-17T11:23:00.437Z,23.10
2018-12-17T11:24:21.390Z,21.30
2018-12-17T11:25:00.373Z,22.10
2018-12-17T11:26:21.358Z,18.30
2018-12-17T11:27:00.388Z,21.30
2018-12-17T11:28:00.342Z,23.20
2018-12-17T11:29:21.299Z,22.50
2018-12-17T11:30:00.295Z,23.80
2018-12-17T11:31:21.248Z,25.80
2018-12-17T11:32:00.240Z,24.70
2018-12-17T11:33:00.230Z,26.50
2018-12-17T11:34:21.226Z,28.30
2018-12-17T11:35:00.181Z,25.30
2018-12-17T11:36:21.153Z,26.60
2018-12-17T11:37:00.157Z,33.00
2018-12-17T11:38:00.134Z,24.70
2018-12-17T11:39:21.113Z,24.70
2018-12-17T11:40:00.078Z,21.60
2018-12-17T11:41:21.069Z,23.70
2018-12-17T11:42:00.052Z,26.40
2018-12-17T11:43:00.042Z,27.70
2018-12-17T11:44:21.016Z,23.10
2018-12-17T11:44:59.985Z,21.20
2018-12-17T11:46:20.978Z,22.40
2018-12-17T11:46:59.971Z,23.20
2018-12-17T11:47:59.955Z,25.20
2018-12-17T11:49:20.908Z,23.30
2018-12-17T11:49:59.894Z,22.10
2018-12-17T11:51:20.967Z,22.70
2018-12-17T11:52:01.242Z,20.30
2018-12-17T11:52:59.876Z,19.20
2018-12-17T11:54:20.831Z,21.70
2018-12-17T11:54:59.795Z,22.60
2018-12-17T11:56:20.851Z,20.10
2018-12-17T11:56:59.756Z,21.00
2018-12-17T11:57:59.737Z,25.00
2018-12-17T11:59:20.726Z,21.60
2018-12-17T11:59:59.702Z,20.70
2018-12-17T12:01:20.681Z,16.80
2018-12-17T12:01:59.658Z,21.70
2018-12-17T12:02:59.636Z,19.70
2018-12-17T12:04:20.618Z,20.80
2018-12-17T12:04:59.589Z,18.80
2018-12-17T12:06:20.575Z,25.40
2018-12-17T12:06:59.564Z,24.00
2018-12-17T12:07:59.533Z,24.80
2018-12-17T12:09:20.523Z,21.20
2018-12-17T12:09:59.490Z,21.40
2018-12-17T12:11:20.476Z,22.30
2018-12-17T12:11:59.458Z,22.60
2018-12-17T12:12:59.448Z,22.80
2018-12-17T12:14:20.416Z,23.40
2018-12-17T12:14:59.405Z,22.20
2018-12-17T12:16:20.385Z,21.70
2018-12-17T12:16:59.358Z,23.50
2018-12-17T12:17:59.342Z,22.90
2018-12-17T12:19:20.319Z,22.30
2018-12-17T12:19:59.297Z,28.80
2018-12-17T12:21:20.365Z,26.30
2018-12-17T12:21:59.262Z,27.00
2018-12-17T12:22:59.252Z,25.60
2018-12-17T12:24:20.234Z,24.10
2018-12-17T12:24:59.279Z,24.60
2018-12-17T12:26:20.191Z,27.50
2018-12-17T12:26:59.171Z,24.20
2018-12-17T12:27:59.159Z,28.50
2018-12-17T12:29:20.136Z,30.60
2018-12-17T12:29:59.105Z,30.40
2018-12-17T12:31:20.100Z,26.40
2018-12-17T12:31:59.059Z,25.60
2018-12-17T12:32:59.046Z,30.00
2018-12-17T12:34:20.032Z,30.00
2018-12-17T12:34:59.028Z,31.30
2018-12-17T12:36:19.991Z,37.00
2018-12-17T12:36:58.962Z,31.30
2018-12-17T12:37:58.943Z,29.30
2018-12-17T12:39:19.930Z,30.90
2018-12-17T12:39:58.924Z,29.10
2018-12-17T12:41:19.891Z,31.30
2018-12-17T12:41:58.881Z,33.10
2018-12-17T12:42:58.857Z,36.80
2018-12-17T12:44:19.833Z,41.90
2018-12-17T12:44:58.883Z,46.10
2018-12-17T12:46:19.802Z,38.90
2018-12-17T12:46:58.781Z,34.00
2018-12-17T12:47:58.752Z,35.20
2018-12-17T12:49:19.730Z,35.80
2018-12-17T12:49:58.722Z,33.40
2018-12-17T12:51:19.753Z,36.40